Time;durP1;ratioP1;P1;durP2;ratioP2;P2;SDS_P1;SDS_P2;PMS_P1;PMS_P2;Temp;Humidity;BMP_temperature;BMP_pressure;BME280_temperature;BME280_humidity;BME280_pressure;Samples;Min_cycle;Max_cycle;Signal;HPM_P1;HPM_P2
2024/03/19 00:01:44;;;;;;;12.02;8.13;;;;;;;6.51;100.00;96871.06;5045033;28;20043;-66
2024/03/19 00:04:09;;;;;;;9.90;7.60;;;;;;;6.50;100.00;96872.22;5032321;28;20037;-67
2024/03/19 00:06:35;;;;;;;10.73;7.65;;;;;;;6.48;100.00;96860.06;5039687;28;20036;-66
2024/03/19 00:09:01;;;;;;;12.05;8.18;;;;;;;6.48;100.00;96862.78;5038667;28;20060;-67
2024/03/19 00:11:26;;;;;;;11.57;8.38;;;;;;;6.50;100.00;96864.06;5034062;28;20717;-67
2024/03/19 00:13:52;;;;;;;11.50;7.70;;;;;;;6.53;100.00;96862.56;5039295;28;20092;-67
2024/03/19 00:16:17;;;;;;;11.80;8.35;;;;;;;6.51;100.00;96868.34;5050880;28;20129;-67
2024/03/19 00:18:42;;;;;;;12.70;8.68;;;;;;;6.51;100.00;96868.34;5054631;28;20456;-67
2024/03/19 00:21:10;;;;;;;12.18;8.13;;;;;;;6.54;100.00;96866.09;5041091;28;20072;-67
2024/03/19 00:23:36;;;;;;;12.95;8.88;;;;;;;6.59;100.00;96871.31;5048830;28;20043;-67
2024/03/19 00:26:02;;;;;;;13.82;7.93;;;;;;;6.61;100.00;96867.13;5048087;28;20583;-68
2024/03/19 00:28:27;;;;;;;13.55;8.18;;;;;;;6.63;100.00;96864.09;5049783;28;20048;-66
2024/03/19 00:30:55;;;;;;;11.48;7.65;;;;;;;6.62;100.00;96857.03;5043933;28;20060;-66
2024/03/19 00:33:21;;;;;;;11.38;7.63;;;;;;;6.69;100.00;96860.78;5039315;28;20523;-66
2024/03/19 00:35:47;;;;;;;11.00;7.68;;;;;;;6.79;100.00;96856.84;5051075;28;20113;-67
2024/03/19 00:38:13;;;;;;;10.13;7.53;;;;;;;6.89;100.00;96853.69;5046753;28;20499;-67
2024/03/19 00:40:41;;;;;;;11.85;7.22;;;;;;;6.96;100.00;96850.41;5046955;28;20064;-67
2024/03/19 00:43:10;;;;;;;9.52;7.30;;;;;;;7.06;100.00;96847.25;5041587;28;20052;-67
2024/03/19 00:45:35;;;;;;;10.25;7.10;;;;;;;7.14;100.00;96852.91;5041525;28;20040;-67
2024/03/19 00:48:00;;;;;;;10.13;7.47;;;;;;;6.87;100.00;96847.78;5050961;28;20040;-67
2024/03/19 00:50:26;;;;;;;11.82;8.57;;;;;;;6.74;100.00;96843.47;5047214;28;20044;-67
2024/03/19 00:52:52;;;;;;;12.27;8.55;;;;;;;6.81;100.00;96838.25;5045203;28;20029;-67
2024/03/19 00:55:17;;;;;;;12.18;8.45;;;;;;;6.75;100.00;96841.53;5065871;28;20068;-67
2024/03/19 00:57:43;;;;;;;12.07;8.75;;;;;;;6.70;100.00;96837.91;5032645;28;20570;-67
2024/03/19 01:00:11;;;;;;;11.68;8.63;;;;;;;6.72;100.00;96840.28;5044192;28;20128;-67
2024/03/19 01:02:38;;;;;;;10.88;8.23;;;;;;;6.69;100.00;96836.28;5051881;28;20039;-68
2024/03/19 01:05:14;;;;;;;13.70;8.85;;;;;;;6.72;100.00;96839.47;5037347;28;20128;-68
2024/03/19 01:07:43;;;;;;;12.05;8.32;;;;;;;6.64;100.00;96841.94;5051323;28;20060;-67
2024/03/19 01:10:10;;;;;;;11.23;8.50;;;;;;;6.62;100.00;96836.06;5038132;28;20052;-67
2024/03/19 01:12:39;;;;;;;14.38;8.98;;;;;;;6.55;100.00;96843.19;5042817;28;20191;-66
2024/03/19 01:15:06;;;;;;;11.68;8.82;;;;;;;6.52;100.00;96844.66;5044957;28;20044;-67
2024/03/19 01:17:39;;;;;;;14.27;10.07;;;;;;;6.58;100.00;96828.91;5050075;28;20045;-67
2024/03/19 01:20:11;;;;;;;11.98;8.77;;;;;;;6.58;100.00;96826.19;5045054;28;20247;-66
2024/03/19 01:22:37;;;;;;;12.63;9.07;;;;;;;6.52;100.00;96828.34;5039520;28;20029;-67
2024/03/19 01:25:07;;;;;;;13.65;9.02;;;;;;;6.47;100.00;96832.06;5036574;28;20041;-66
2024/03/19 01:27:36;;;;;;;13.23;9.15;;;;;;;6.46;100.00;96827.78;5052880;28;20072;-66
2024/03/19 01:30:02;;;;;;;16.30;10.05;;;;;;;6.48;100.00;96814.63;5054622;28;20056;-67
2024/03/19 01:32:28;;;;;;;14.38;10.05;;;;;;;6.48;100.00;96828.22;5047811;28;20487;-68
2024/03/19 01:34:53;;;;;;;14.90;10.52;;;;;;;6.49;100.00;96820.84;5040344;28;20059;-67
2024/03/19 01:37:19;;;;;;;14.98;10.07;;;;;;;6.54;100.00;96820.63;5052332;28;20116;-66
2024/03/19 01:39:45;;;;;;;15.43;9.95;;;;;;;6.54;100.00;96817.13;5041589;28;20044;-66
2024/03/19 01:42:12;;;;;;;13.60;9.80;;;;;;;6.51;100.00;96816.66;5040199;28;20388;-66
2024/03/19 01:44:37;;;;;;;13.43;9.57;;;;;;;6.51;100.00;96811.19;5048925;28;20045;-67
2024/03/19 01:47:04;;;;;;;15.57;9.48;;;;;;;6.48;100.00;96814.63;5026455;28;20044;-69
2024/03/19 01:49:30;;;;;;;10.82;8.27;;;;;;;6.55;100.00;96811.31;5053569;28;20065;-68
2024/03/19 01:51:58;;;;;;;14.32;8.93;;;;;;;6.49;100.00;96818.13;5061536;28;20548;-68
2024/03/19 01:54:24;;;;;;;11.48;8.38;;;;;;;6.49;100.00;96818.13;5047443;28;20482;-68
2024/03/19 01:56:50;;;;;;;10.70;8.02;;;;;;;6.48;100.00;96817.34;5059263;28;20041;-68
2024/03/19 01:59:16;;;;;;;11.70;7.35;;;;;;;6.53;100.00;96813.59;5043981;28;20043;-68
2024/03/19 02:01:41;;;;;;;10.43;7.28;;;;;;;6.64;100.00;96822.13;5041450;28;20037;-68
2024/03/19 02:04:08;;;;;;;11.57;7.40;;;;;;;6.70;100.00;96820.78;5034825;28;20558;-68
2024/03/19 02:06:33;;;;;;;10.05;7.38;;;;;;;6.87;100.00;96823.28;5040864;28;20049;-68
2024/03/19 02:09:09;;;;;;;10.10;7.60;;;;;;;6.94;100.00;96821.94;5042418;28;20131;-68
2024/03/19 02:11:36;;;;;;;12.82;7.88;;;;;;;6.71;100.00;96825.06;5037818;28;20040;-68
2024/03/19 02:14:04;;;;;;;13.45;8.93;;;;;;;6.61;100.00;96814.63;5053937;28;20131;-68
2024/03/19 02:16:30;;;;;;;12.88;8.80;;;;;;;6.57;100.00;96816.44;5052884;28;20041;-68
2024/03/19 02:19:04;;;;;;;11.02;8.15;;;;;;;6.62;100.00;96814.28;5054486;28;20041;-69
2024/03/19 02:21:31;;;;;;;11.70;8.23;;;;;;;6.72;100.00;96815.78;5040839;28;20044;-67
2024/03/19 02:23:58;;;;;;;13.23;8.27;;;;;;;6.86;100.00;96818.16;5049940;28;20140;-67
2024/03/19 02:26:26;;;;;;;14.27;8.77;;;;;;;6.93;100.00;96814.88;5034970;28;20138;-67
2024/03/19 02:28:52;;;;;;;13.88;9.18;;;;;;;6.78;100.00;96816.34;5050296;28;20045;-66
2024/03/19 02:31:17;;;;;;;12.98;8.95;;;;;;;6.66;100.00;96811.69;5046107;28;20046;-66
2024/03/19 02:33:43;;;;;;;12.82;8.93;;;;;;;6.65;100.00;96810.09;5038668;28;20075;-67
2024/03/19 02:36:08;;;;;;;14.68;9.48;;;;;;;6.58;100.00;96812.59;5053421;28;20517;-67
2024/03/19 02:38:34;;;;;;;12.50;9.27;;;;;;;6.55;100.00;96807.81;5045783;28;20048;-67
2024/03/19 02:40:59;;;;;;;16.02;10.00;;;;;;;6.53;100.00;96804.63;5043450;28;20515;-66
2024/03/19 02:43:24;;;;;;;15.18;9.60;;;;;;;6.57;100.00;96811.81;5045769;28;20127;-66
2024/03/19 02:45:50;;;;;;;14.75;9.60;;;;;;;6.51;100.00;96804.97;5053654;28;20045;-67
2024/03/19 02:48:18;;;;;;;16.08;10.68;;;;;;;6.48;100.00;96808.34;5046318;28;20040;-69
2024/03/19 02:50:47;;;;;;;14.05;10.25;;;;;;;6.52;100.00;96809.28;5053117;28;20569;-67
2024/03/19 02:53:13;;;;;;;15.70;10.73;;;;;;;6.60;100.00;96813.03;5035892;28;20044;-69
2024/03/19 02:55:38;;;;;;;16.30;10.02;;;;;;;6.65;100.00;96816.34;5049402;28;20049;-68
2024/03/19 02:58:04;;;;;;;14.73;9.40;;;;;;;6.68;100.00;96807.50;5060151;28;20055;-69
2024/03/19 03:00:29;;;;;;;17.38;11.30;;;;;;;6.61;100.00;96810.00;5051017;28;20078;-68
2024/03/19 03:02:55;;;;;;;14.90;10.32;;;;;;;6.60;100.00;96808.38;5040548;28;20037;-68
2024/03/19 03:05:20;;;;;;;17.05;10.93;;;;;;;6.51;100.00;96821.28;5042199;28;20099;-67
2024/03/19 03:07:46;;;;;;;16.58;10.75;;;;;;;6.51;100.00;96815.84;5040440;28;20045;-67
2024/03/19 03:10:11;;;;;;;19.55;11.13;;;;;;;6.54;100.00;96822.56;5034848;28;20044;-67
2024/03/19 03:12:37;;;;;;;18.23;11.32;;;;;;;6.53;100.00;96821.75;5040337;28;20407;-66
2024/03/19 03:15:04;;;;;;;17.48;10.80;;;;;;;6.59;100.00;96831.31;5036951;28;20045;-68
2024/03/19 03:17:31;;;;;;;16.23;9.98;;;;;;;6.68;100.00;96828.47;5040936;28;20037;-67
2024/03/19 03:19:58;;;;;;;17.88;11.40;;;;;;;6.83;100.00;96827.03;5039257;28;20075;-67
2024/03/19 03:22:23;;;;;;;15.68;9.73;;;;;;;6.90;100.00;96827.25;5034996;28;21012;-67
2024/03/19 03:24:48;;;;;;;14.10;9.70;;;;;;;6.93;100.00;96828.50;5039686;28;20091;-67
2024/03/19 03:27:14;;;;;;;15.43;9.30;;;;;;;6.92;100.00;96825.00;5033293;28;20086;-67
2024/03/19 03:29:39;;;;;;;15.15;9.90;;;;;;;6.86;100.00;96832.59;5056255;28;20063;-68
2024/03/19 03:32:05;;;;;;;13.95;9.15;;;;;;;6.79;100.00;96831.53;5035662;28;20032;-68
2024/03/19 03:34:31;;;;;;;14.20;9.60;;;;;;;6.80;100.00;96830.41;5044524;28;20128;-67
2024/03/19 03:36:56;;;;;;;17.20;9.32;;;;;;;6.71;100.00;96830.53;5056117;28;20491;-66
2024/03/19 03:39:22;;;;;;;14.00;9.07;;;;;;;6.60;100.00;96823.94;5041279;28;20133;-65
2024/03/19 03:41:47;;;;;;;13.63;9.77;;;;;;;6.55;100.00;96819.47;5040116;28;20079;-67
2024/03/19 03:44:13;;;;;;;14.45;9.57;;;;;;;6.50;100.00;96812.34;5023576;28;20048;-66
2024/03/19 03:46:39;;;;;;;15.50;10.55;;;;;;;6.45;100.00;96809.06;5039005;28;20044;-66
2024/03/19 03:49:05;;;;;;;18.05;11.50;;;;;;;6.42;100.00;96817.88;5047263;28;20553;-67
2024/03/19 03:51:31;;;;;;;18.73;10.30;;;;;;;6.37;100.00;96815.38;5057503;28;20040;-69
2024/03/19 03:53:57;;;;;;;24.10;10.23;;;;;;;6.39;100.00;96816.63;5053639;28;20068;-68
2024/03/19 03:56:23;;;;;;;16.70;10.90;;;;;;;6.37;100.00;96820.81;5051589;28;20750;-66
2024/03/19 03:58:48;;;;;;;18.75;11.32;;;;;;;6.32;100.00;96822.63;5056498;28;20052;-66
2024/03/19 04:01:13;;;;;;;16.38;10.45;;;;;;;6.27;100.00;96813.88;5059331;28;20135;-69
2024/03/19 04:03:39;;;;;;;19.35;11.32;;;;;;;6.18;100.00;96811.25;5040116;28;20500;-68
2024/03/19 04:06:04;;;;;;;18.85;11.60;;;;;;;6.11;100.00;96816.44;5039927;28;20064;-68
2024/03/19 04:08:30;;;;;;;19.05;12.15;;;;;;;6.11;100.00;96816.44;5039970;28;20082;-68
2024/03/19 04:10:55;;;;;;;23.98;12.13;;;;;;;6.08;100.00;96811.66;5043881;28;20040;-68
2024/03/19 04:13:21;;;;;;;19.52;11.93;;;;;;;6.03;100.00;96822.72;5047557;28;20816;-67
2024/03/19 04:15:49;;;;;;;19.80;11.70;;;;;;;5.95;100.00;96821.66;5046558;28;20490;-68
2024/03/19 04:18:14;;;;;;;18.92;10.88;;;;;;;5.91;100.00;96821.53;5033378;28;20045;-69
2024/03/19 04:20:41;;;;;;;18.15;11.30;;;;;;;5.88;100.00;96824.91;5039751;28;20220;-68
2024/03/19 04:23:07;;;;;;;21.92;11.88;;;;;;;5.80;100.00;96820.34;5035164;28;20045;-70
2024/03/19 04:25:32;;;;;;;16.35;10.65;;;;;;;5.72;100.00;96827.41;5038858;28;20032;-69
2024/03/19 04:27:58;;;;;;;18.92;11.55;;;;;;;5.67;100.00;96829.53;5039074;28;20098;-70
2024/03/19 04:30:23;;;;;;;17.85;10.93;;;;;;;5.63;100.00;96828.63;5035334;28;20107;-69
2024/03/19 04:32:48;;;;;;;17.52;9.95;;;;;;;5.71;100.00;96833.22;5048148;28;20079;-68
2024/03/19 04:35:14;;;;;;;15.30;9.52;;;;;;;5.79;100.00;96832.34;5033753;28;20045;-69
2024/03/19 04:37:40;;;;;;;17.08;10.30;;;;;;;5.78;100.00;96825.31;5054679;28;20543;-69
2024/03/19 04:40:07;;;;;;;14.85;9.95;;;;;;;5.75;100.00;96834.13;5032912;28;20542;-69
2024/03/19 04:42:32;;;;;;;16.67;10.38;;;;;;;5.65;100.00;96832.59;5026707;28;20043;-68
2024/03/19 04:44:57;;;;;;;16.90;10.75;;;;;;;5.54;100.00;96829.47;5053910;28;20049;-68
2024/03/19 04:47:23;;;;;;;15.15;9.93;;;;;;;5.42;100.00;96824.00;5026644;28;20419;-68
2024/03/19 04:49:48;;;;;;;17.45;10.50;;;;;;;5.32;100.00;96829.78;5043517;28;20041;-69
2024/03/19 04:52:14;;;;;;;19.23;11.57;;;;;;;5.26;100.00;96829.19;5034373;28;20068;-69
2024/03/19 04:54:39;;;;;;;17.88;10.95;;;;;;;5.30;100.00;96834.75;5048730;28;20074;-69
2024/03/19 04:57:05;;;;;;;16.02;9.90;;;;;;;5.22;100.00;96833.69;5038760;28;20550;-68
2024/03/19 04:59:30;;;;;;;18.45;9.82;;;;;;;5.09;100.00;96826.56;5051166;28;20044;-68
2024/03/19 05:01:55;;;;;;;11.88;8.15;;;;;;;4.99;100.00;96827.75;5077168;28;20043;-68
2024/03/19 05:04:21;;;;;;;10.65;6.40;;;;;;;4.96;100.00;96834.59;5044971;28;20130;-68
2024/03/19 05:06:46;;;;;;;10.00;6.00;;;;;;;5.02;100.00;96835.22;5038921;28;20041;-68
2024/03/19 05:09:14;;;;;;;9.75;6.95;;;;;;;4.91;100.00;96826.66;5042450;28;20195;-67
2024/03/19 05:11:40;;;;;;;182.80;10.05;;;;;;;4.47;100.00;96826.03;5038668;28;20353;-69
2024/03/19 05:14:05;;;;;;;51.38;7.63;;;;;;;4.32;100.00;96830.06;5037627;28;20051;-69
2024/03/19 05:16:31;;;;;;;13.18;7.82;;;;;;;4.50;100.00;96825.38;5052209;28;20099;-69
2024/03/19 05:18:56;;;;;;;16.60;9.40;;;;;;;4.78;100.00;96833.88;5057669;28;20123;-69
2024/03/19 05:21:22;;;;;;;21.10;9.68;;;;;;;4.86;100.00;96837.72;5038021;28;20992;-69
2024/03/19 05:23:47;;;;;;;20.52;10.27;;;;;;;4.98;100.00;96834.28;5042288;28;20037;-69
2024/03/19 05:26:13;;;;;;;18.58;10.43;;;;;;;5.03;100.00;96836.03;5045254;28;20032;-69
2024/03/19 05:28:38;;;;;;;17.52;10.52;;;;;;;5.00;100.00;96834.75;5050009;28;20048;-68
2024/03/19 05:31:22;;;;;;;20.17;12.25;;;;;;;4.97;100.00;96836.22;5038614;28;20408;-69
2024/03/19 05:33:49;;;;;;;18.00;11.40;;;;;;;4.99;100.00;96835.88;5050752;28;20056;-68
2024/03/19 05:36:14;;;;;;;16.48;11.77;;;;;;;4.97;100.00;96844.34;5045936;28;20439;-68
2024/03/19 05:38:40;;;;;;;17.85;11.07;;;;;;;5.04;100.00;96843.03;5058546;28;20048;-68
2024/03/19 05:41:05;;;;;;;18.45;11.20;;;;;;;5.09;100.00;96843.66;5045597;28;20126;-68
2024/03/19 05:43:30;;;;;;;18.65;11.50;;;;;;;5.48;100.00;96847.09;5046631;28;20049;-68
2024/03/19 05:45:56;;;;;;;12.82;9.43;;;;;;;5.65;100.00;96840.75;5043317;28;20054;-68
2024/03/19 05:48:21;;;;;;;13.00;8.60;;;;;;;5.74;100.00;96843.41;5030452;28;20127;-68
2024/03/19 05:50:47;;;;;;;13.00;9.00;;;;;;;6.07;100.00;96853.59;5026793;28;20032;-69
2024/03/19 05:53:12;;;;;;;13.15;9.25;;;;;;;6.53;100.00;96857.13;5034006;28;20042;-68
2024/03/19 05:55:37;;;;;;;11.43;8.40;;;;;;;7.33;100.00;96847.69;5041725;28;20053;-69
2024/03/19 05:58:03;;;;;;;9.93;8.18;;;;;;;7.80;100.00;96854.56;5044805;28;20041;-68
2024/03/19 06:00:28;;;;;;;9.70;6.68;;;;;;;8.21;100.00;96861.59;5050309;28;20635;-69
2024/03/19 06:02:54;;;;;;;9.90;6.85;;;;;;;8.83;100.00;96853.09;5056664;28;20029;-69
2024/03/19 06:05:19;;;;;;;7.22;5.40;;;;;;;8.91;100.00;96849.44;5043947;28;20520;-69
2024/03/19 06:07:45;;;;;;;7.53;5.38;;;;;;;8.59;100.00;96838.47;5042173;28;20048;-69
2024/03/19 06:10:11;;;;;;;5.90;4.55;;;;;;;8.79;100.00;96822.19;5037576;28;20044;-69
2024/03/19 06:12:36;;;;;;;6.38;4.55;;;;;;;9.09;100.00;96810.81;5041551;28;20037;-67
2024/03/19 06:15:02;;;;;;;7.05;4.38;;;;;;;9.08;100.00;96812.75;5039230;28;20033;-68
2024/03/19 06:17:28;;;;;;;9.55;5.07;;;;;;;8.64;100.00;96810.09;5040556;28;20049;-68
2024/03/19 06:19:53;;;;;;;6.40;5.65;;;;;;;7.96;100.00;96805.50;5041995;28;20072;-68
2024/03/19 06:22:18;;;;;;;7.35;5.78;;;;;;;8.06;100.00;96815.16;5036687;28;20059;-67
2024/03/19 06:24:44;;;;;;;13.88;10.82;;;;;;;8.75;100.00;96810.38;5039875;28;20037;-70
2024/03/19 06:27:09;;;;;;;18.48;16.48;;;;;;;9.06;100.00;96800.59;5036678;28;20033;-68
2024/03/19 06:29:35;;;;;;;20.13;17.73;;;;;;;9.33;100.00;96812.56;5042572;28;20041;-67
2024/03/19 06:32:00;;;;;;;15.75;14.02;;;;;;;9.37;100.00;96816.16;5048685;28;20426;-68
2024/03/19 06:34:26;;;;;;;6.85;5.85;;;;;;;10.13;100.00;96815.81;5046079;28;20072;-69
2024/03/19 06:36:52;;;;;;;6.03;4.72;;;;;;;11.56;100.00;96813.94;5040684;28;20120;-68
2024/03/19 06:39:19;;;;;;;4.20;3.25;;;;;;;12.54;100.00;96823.03;5035529;28;20037;-69
2024/03/19 06:41:45;;;;;;;5.03;3.95;;;;;;;13.99;100.00;96824.94;5040734;28;20044;-68
2024/03/19 06:44:10;;;;;;;8.27;5.57;;;;;;;12.49;100.00;96828.06;5039904;28;20047;-69
2024/03/19 06:46:36;;;;;;;7.10;4.97;;;;;;;11.65;100.00;96817.22;5040556;28;20040;-69
2024/03/19 06:49:04;;;;;;;6.05;4.50;;;;;;;11.16;100.00;96816.09;5050644;28;20044;-69
2024/03/19 06:51:29;;;;;;;7.57;4.75;;;;;;;10.61;100.00;96818.31;5043790;28;20476;-68
2024/03/19 06:53:55;;;;;;;7.82;5.70;;;;;;;9.56;100.00;96812.66;5042261;28;20060;-68
2024/03/19 06:56:20;;;;;;;6.53;4.65;;;;;;;11.38;100.00;96806.25;5050847;28;20555;-68
2024/03/19 06:58:45;;;;;;;6.30;4.28;;;;;;;10.78;100.00;96815.06;5048674;28;20103;-68
2024/03/19 07:01:11;;;;;;;6.20;4.40;;;;;;;11.95;100.00;96822.72;5035210;28;20391;-67
2024/03/19 07:03:36;;;;;;;6.72;4.75;;;;;;;12.19;100.00;96820.66;5044664;28;20045;-68
2024/03/19 07:06:02;;;;;;;5.35;3.53;;;;;;;13.76;100.00;96826.81;5059673;28;20053;-69
2024/03/19 07:08:29;;;;;;;5.63;3.55;;;;;;;11.94;100.00;96829.41;5038574;28;20058;-68
2024/03/19 07:10:55;;;;;;;5.47;3.78;;;;;;;11.55;100.00;96832.34;5039664;28;20061;-69
2024/03/19 07:13:20;;;;;;;7.18;4.53;;;;;;;12.69;100.00;96823.97;5034337;28;21870;-69
2024/03/19 07:15:45;;;;;;;7.55;3.67;;;;;;;10.98;100.00;96836.94;5040598;28;20035;-68
2024/03/19 07:18:11;;;;;;;8.02;4.70;;;;;;;10.80;100.00;96839.38;5043297;28;20064;-68
2024/03/19 07:20:39;;;;;;;6.32;4.13;;;;;;;11.54;100.00;96847.25;5041761;28;20134;-68
2024/03/19 07:23:05;;;;;;;6.13;4.18;;;;;;;11.53;100.00;96842.13;5038495;28;20491;-69
2024/03/19 07:25:32;;;;;;;6.18;4.55;;;;;;;11.33;100.00;96858.66;5048814;28;20036;-68
2024/03/19 07:27:58;;;;;;;7.53;5.07;;;;;;;10.03;100.00;96852.75;5044520;28;20048;-68
2024/03/19 07:30:23;;;;;;;5.95;4.18;;;;;;;11.69;100.00;96859.22;5038690;28;20506;-69
2024/03/19 07:32:49;;;;;;;7.70;4.22;;;;;;;12.03;100.00;96862.84;5039995;28;20037;-70
2024/03/19 07:35:14;;;;;;;8.13;4.70;;;;;;;11.86;100.00;96860.63;5034611;28;20043;-69
2024/03/19 07:37:40;;;;;;;12.18;4.28;;;;;;;12.54;100.00;96861.50;5047297;28;20037;-67
2024/03/19 07:40:10;;;;;;;5.85;4.00;;;;;;;13.83;100.00;96855.53;5035688;28;20037;-68
2024/03/19 07:42:37;;;;;;;6.40;4.45;;;;;;;13.28;100.00;96851.59;5042539;28;20072;-68
2024/03/19 07:45:03;;;;;;;8.23;5.47;;;;;;;12.10;100.00;96847.63;5037317;28;20067;-69
2024/03/19 07:47:29;;;;;;;5.60;4.28;;;;;;;11.22;100.00;96854.97;5048795;28;20040;-68
2024/03/19 07:49:55;;;;;;;5.80;4.43;;;;;;;11.62;100.00;96851.66;5055259;28;20040;-70
2024/03/19 07:52:20;;;;;;;8.15;4.70;;;;;;;11.47;100.00;96852.63;5035468;28;20043;-68
2024/03/19 07:54:45;;;;;;;7.68;4.32;;;;;;;10.66;100.00;96856.34;5027454;28;20040;-69
2024/03/19 07:57:11;;;;;;;5.53;4.25;;;;;;;10.87;100.00;96855.94;5033904;28;20132;-68
2024/03/19 07:59:36;;;;;;;6.28;3.70;;;;;;;10.39;100.00;96853.50;5038934;28;20040;-68
2024/03/19 08:02:04;;;;;;;7.10;4.38;;;;;;;10.41;100.00;96855.88;5038138;28;20037;-69
2024/03/19 08:04:30;;;;;;;6.70;4.28;;;;;;;10.20;100.00;96857.00;5046566;28;20157;-70
2024/03/19 08:06:56;;;;;;;6.90;4.47;;;;;;;10.41;100.00;96861.38;5065715;28;20058;-69
2024/03/19 08:09:22;;;;;;;6.72;4.78;;;;;;;9.31;100.00;96855.81;5042391;28;20151;-68
2024/03/19 08:11:48;;;;;;;7.07;4.47;;;;;;;9.17;100.00;96853.56;5048490;28;20037;-68
2024/03/19 08:14:13;;;;;;;14.25;7.80;;;;;;;9.38;100.00;96848.59;5034866;28;20055;-67
2024/03/19 08:16:39;;;;;;;13.25;10.20;;;;;;;9.89;100.00;96852.44;5041123;28;20400;-70
2024/03/19 08:19:08;;;;;;;8.90;5.40;;;;;;;10.45;100.00;96860.25;5040171;28;20087;-70
2024/03/19 08:21:35;;;;;;;8.20;7.22;;;;;;;11.01;100.00;96858.94;5039061;28;20152;-69
2024/03/19 08:24:01;;;;;;;9.40;4.22;;;;;;;12.03;100.00;96851.88;5039477;28;20041;-70
2024/03/19 08:26:27;;;;;;;9.35;3.67;;;;;;;12.97;100.00;96861.16;5036076;28;20105;-67
2024/03/19 08:28:52;;;;;;;4.82;3.45;;;;;;;13.03;100.00;96865.13;5019765;28;20048;-68
2024/03/19 08:31:17;;;;;;;4.57;3.65;;;;;;;14.86;100.00;96871.75;5033052;28;20548;-68
2024/03/19 08:33:43;;;;;;;5.93;3.25;;;;;;;12.45;100.00;96872.00;5038540;28;20045;-69
2024/03/19 08:36:08;;;;;;;3.72;2.92;;;;;;;12.14;100.00;96864.94;5034171;28;20037;-68
2024/03/19 08:38:34;;;;;;;6.55;3.75;;;;;;;11.76;100.00;96875.00;5048208;28;20060;-68
2024/03/19 08:41:04;;;;;;;4.70;3.90;;;;;;;11.66;100.00;96871.69;5035726;28;20028;-69
2024/03/19 08:43:30;;;;;;;6.90;3.63;;;;;;;11.64;100.00;96873.25;5052040;28;20041;-69
2024/03/19 08:45:55;;;;;;;4.45;3.08;;;;;;;13.60;100.00;96872.31;5038969;28;20041;-69
2024/03/19 08:48:21;;;;;;;6.50;3.17;;;;;;;15.51;100.00;96885.63;5040661;28;20284;-68
2024/03/19 08:50:46;;;;;;;5.68;3.50;;;;;;;14.59;100.00;96884.28;5051754;28;20132;-69
2024/03/19 08:53:12;;;;;;;7.10;3.05;;;;;;;16.14;100.00;96890.69;5036790;28;20049;-67
2024/03/19 08:55:40;;;;;;;4.40;2.95;;;;;;;15.74;100.00;96893.53;5041585;28;20049;-67
2024/03/19 08:58:06;;;;;;;3.90;2.60;;;;;;;15.56;100.00;96890.75;5051091;28;20158;-67
2024/03/19 09:00:31;;;;;;;5.53;3.08;;;;;;;15.93;100.00;96888.75;5053905;28;20079;-67
2024/03/19 09:02:57;;;;;;;4.15;2.70;;;;;;;15.53;100.00;96893.50;5041943;28;20041;-68
2024/03/19 09:05:23;;;;;;;5.63;2.10;;;;;;;17.39;93.04;96898.41;5039386;28;20635;-67
2024/03/19 09:07:48;;;;;;;4.97;2.78;;;;;;;14.79;100.00;96887.50;5063884;28;20044;-69
2024/03/19 09:10:14;;;;;;;6.07;2.40;;;;;;;15.97;100.00;96886.78;5065566;28;20063;-69
2024/03/19 09:12:39;;;;;;;5.60;2.95;;;;;;;16.76;90.14;96901.13;5045001;28;20033;-70
2024/03/19 09:15:06;;;;;;;7.10;3.22;;;;;;;18.40;84.68;96905.81;5035859;28;20029;-70
2024/03/19 09:17:32;;;;;;;3.90;2.20;;;;;;;15.13;100.00;96896.25;5050579;28;20040;-68
2024/03/19 09:19:58;;;;;;;3.33;2.20;;;;;;;13.80;100.00;96883.84;5042303;28;20070;-69
2024/03/19 09:22:24;;;;;;;3.15;2.20;;;;;;;13.98;100.00;96879.25;5019241;28;20055;-69
2024/03/19 09:24:49;;;;;;;4.45;2.42;;;;;;;15.79;100.00;96893.13;5041033;28;20065;-68
2024/03/19 09:27:14;;;;;;;8.38;2.50;;;;;;;17.40;94.32;96896.41;5051134;28;20060;-69
2024/03/19 09:29:40;;;;;;;2.47;1.75;;;;;;;18.51;81.73;96897.34;5041076;28;20041;-69
2024/03/19 09:32:06;;;;;;;2.47;1.70;;;;;;;19.44;74.25;96901.66;5037263;28;20033;-69
2024/03/19 09:34:32;;;;;;;3.95;2.05;;;;;;;18.19;73.97;96904.06;5049626;28;20068;-69
2024/03/19 09:36:57;;;;;;;2.08;1.50;;;;;;;17.46;88.47;96888.47;5045427;28;20502;-68
2024/03/19 09:39:23;;;;;;;4.72;1.63;;;;;;;15.31;100.00;96895.47;5056947;28;20048;-68
2024/03/19 09:42:03;;;;;;;3.50;1.55;;;;;;;16.19;96.83;96885.56;5051142;28;20402;-68
2024/03/19 09:44:29;;;;;;;4.13;1.70;;;;;;;17.78;86.85;96879.88;5058271;28;20142;-68
2024/03/19 09:46:55;;;;;;;4.18;1.70;;;;;;;19.62;74.64;96893.03;5041102;28;20033;-68
2024/03/19 09:49:21;;;;;;;5.15;1.65;;;;;;;19.40;71.95;96891.84;5044364;28;20048;-68
2024/03/19 09:51:48;;;;;;;3.45;1.50;;;;;;;19.28;67.43;96896.78;5038714;28;20051;-69
2024/03/19 09:54:14;;;;;;;3.75;1.30;;;;;;;18.28;78.63;96892.50;5041347;28;20040;-66
2024/03/19 09:56:41;;;;;;;2.60;1.40;;;;;;;19.13;73.37;96892.63;5041780;28;20040;-66
2024/03/19 09:59:13;;;;;;;5.88;2.80;;;;;;;19.81;73.79;96893.59;5036153;28;20064;-67
2024/03/19 10:01:41;;;;;;;4.68;2.90;;;;;;;19.80;73.19;96892.78;5040597;28;20063;-69
2024/03/19 10:04:12;;;;;;;4.63;2.92;;;;;;;19.37;77.42;96887.88;5038962;28;20045;-67
2024/03/19 10:06:39;;;;;;;8.65;3.70;;;;;;;19.34;80.13;96891.53;5058177;28;20125;-66
2024/03/19 10:09:06;;;;;;;4.90;2.75;;;;;;;18.87;76.97;96885.84;5070112;28;20144;-69
2024/03/19 10:11:31;;;;;;;5.22;2.88;;;;;;;19.21;77.30;96883.00;5053605;28;20047;-68
2024/03/19 10:13:57;;;;;;;4.80;2.72;;;;;;;18.67;78.73;96882.91;5040250;28;20041;-68
2024/03/19 10:16:23;;;;;;;4.97;3.05;;;;;;;17.63;88.54;96876.47;5036326;28;20531;-67
2024/03/19 10:18:48;;;;;;;6.00;3.33;;;;;;;18.50;83.83;96879.94;5057382;28;20044;-67
2024/03/19 10:21:14;;;;;;;5.07;3.20;;;;;;;18.99;80.95;96884.50;5035400;28;20439;-67
2024/03/19 10:23:40;;;;;;;5.68;2.83;;;;;;;19.29;77.82;96886.44;5039417;28;20051;-67
2024/03/19 10:26:05;;;;;;;4.60;2.72;;;;;;;20.20;73.28;96887.31;5035706;28;20033;-67
2024/03/19 10:28:31;;;;;;;4.82;2.38;;;;;;;20.18;67.45;96888.94;5040749;28;20074;-67
2024/03/19 10:30:57;;;;;;;4.32;2.45;;;;;;;18.43;75.97;96882.78;5040785;28;20037;-67
2024/03/19 10:33:23;;;;;;;3.53;2.83;;;;;;;19.27;75.92;96886.06;5051916;28;20135;-67
2024/03/19 10:35:51;;;;;;;4.45;3.00;;;;;;;18.06;84.02;96878.84;5053018;28;20147;-67
2024/03/19 10:38:16;;;;;;;7.25;2.95;;;;;;;19.25;79.28;96880.94;5049524;28;20045;-68
2024/03/19 10:40:43;;;;;;;3.97;3.25;;;;;;;18.60;84.05;96877.44;5057253;28;20415;-67
2024/03/19 10:43:19;;;;;;;6.28;3.83;;;;;;;18.60;83.72;96880.22;5047035;28;20106;-68
2024/03/19 10:45:49;;;;;;;5.80;3.50;;;;;;;18.54;83.83;96877.88;5049862;28;20040;-66
2024/03/19 10:48:17;;;;;;;5.00;3.67;;;;;;;18.72;79.37;96874.88;5039436;28;20072;-67
2024/03/19 10:50:46;;;;;;;4.75;3.47;;;;;;;18.26;84.81;96870.72;5058032;28;20048;-68
2024/03/19 10:53:17;;;;;;;5.30;3.80;;;;;;;18.48;84.50;96874.00;5041786;28;20040;-67
2024/03/19 10:55:45;;;;;;;6.90;4.00;;;;;;;18.40;82.59;96878.09;5039836;28;20511;-66
2024/03/19 10:58:11;;;;;;;5.13;3.42;;;;;;;16.95;86.15;96880.50;5033970;28;20044;-66
2024/03/19 11:00:41;;;;;;;4.57;3.63;;;;;;;17.86;85.89;96870.34;5039638;28;20395;-67
2024/03/19 11:03:12;;;;;;;4.57;3.28;;;;;;;17.90;83.33;96879.41;5035319;28;20182;-67
2024/03/19 11:05:40;;;;;;;6.40;2.92;;;;;;;18.85;80.82;96872.41;5039917;28;20479;-67
2024/03/19 11:08:10;;;;;;;4.80;3.13;;;;;;;19.16;75.45;96877.09;5041058;28;20136;-67
2024/03/19 11:10:37;;;;;;;5.40;3.10;;;;;;;18.81;79.15;96866.09;5059664;28;20025;-67
2024/03/19 11:13:07;;;;;;;4.63;2.75;;;;;;;18.72;78.20;96869.34;5064335;28;20292;-67
2024/03/19 11:15:34;;;;;;;4.05;2.65;;;;;;;18.24;81.42;96858.44;5056221;28;20098;-67
2024/03/19 11:18:11;;;;;;;4.32;2.72;;;;;;;17.13;87.14;96857.47;5039351;28;20025;-67
2024/03/19 11:20:43;;;;;;;4.75;2.90;;;;;;;16.27;100.00;96850.38;5047615;28;20044;-66